sensor_id;sensor_type;location;lat;lon;timestamp;P1;durP1;ratioP1;P2;durP2;ratioP2
23952;SDS011;12163;49.316;6.092;2022-12-08T00:01:16;50.22;;;19.63;;
23952;SDS011;12163;49.316;6.092;2022-12-08T00:03:44;46.13;;;19.45;;
23952;SDS011;12163;49.316;6.092;2022-12-08T00:06:14;48.75;;;19.05;;
23952;SDS011;12163;49.316;6.092;2022-12-08T00:14:21;41.50;;;17.73;;
23952;SDS011;12163;49.316;6.092;2022-12-08T00:16:49;38.88;;;16.75;;
23952;SDS011;12163;49.316;6.092;2022-12-08T00:19:16;39.40;;;17.90;;
23952;SDS011;12163;49.316;6.092;2022-12-08T00:21:42;39.60;;;16.83;;
23952;SDS011;12163;49.316;6.092;2022-12-08T00:24:09;38.03;;;15.55;;
23952;SDS011;12163;49.316;6.092;2022-12-08T00:26:36;32.13;;;16.08;;
23952;SDS011;12163;49.316;6.092;2022-12-08T00:29:03;41.80;;;16.35;;
23952;SDS011;12163;49.316;6.092;2022-12-08T00:31:30;37.60;;;16.33;;
23952;SDS011;12163;49.316;6.092;2022-12-08T00:33:57;37.40;;;16.05;;
23952;SDS011;12163;49.316;6.092;2022-12-08T00:36:24;38.53;;;16.63;;
23952;SDS011;12163;49.316;6.092;2022-12-08T00:38:51;40.25;;;18.05;;
23952;SDS011;12163;49.316;6.092;2022-12-08T00:41:18;43.97;;;19.00;;
23952;SDS011;12163;49.316;6.092;2022-12-08T00:44:06;53.10;;;20.48;;
23952;SDS011;12163;49.316;6.092;2022-12-08T00:46:34;46.45;;;19.42;;
23952;SDS011;12163;49.316;6.092;2022-12-08T00:49:01;53.75;;;20.75;;
23952;SDS011;12163;49.316;6.092;2022-12-08T00:51:28;47.63;;;19.38;;
23952;SDS011;12163;49.316;6.092;2022-12-08T00:53:55;43.20;;;19.30;;
23952;SDS011;12163;49.316;6.092;2022-12-08T00:56:22;42.10;;;19.00;;
23952;SDS011;12163;49.316;6.092;2022-12-08T00:58:48;43.30;;;18.52;;
23952;SDS011;12163;49.316;6.092;2022-12-08T01:01:15;44.85;;;18.70;;
23952;SDS011;12163;49.316;6.092;2022-12-08T01:03:42;37.35;;;17.30;;
23952;SDS011;12163;49.316;6.092;2022-12-08T01:06:10;38.30;;;17.58;;
23952;SDS011;12163;49.316;6.092;2022-12-08T01:08:37;34.25;;;16.23;;
23952;SDS011;12163;49.316;6.092;2022-12-08T01:11:05;29.83;;;14.38;;
23952;SDS011;12163;49.316;6.092;2022-12-08T01:13:33;30.08;;;14.77;;
23952;SDS011;12163;49.316;6.092;2022-12-08T01:16:00;35.65;;;14.90;;
23952;SDS011;12163;49.316;6.092;2022-12-08T01:18:27;22.45;;;11.27;;
23952;SDS011;12163;49.316;6.092;2022-12-08T01:20:54;19.58;;;10.02;;
23952;SDS011;12163;49.316;6.092;2022-12-08T01:23:21;16.08;;;8.13;;
23952;SDS011;12163;49.316;6.092;2022-12-08T01:25:47;15.40;;;8.25;;
23952;SDS011;12163;49.316;6.092;2022-12-08T01:28:14;12.70;;;7.18;;
23952;SDS011;12163;49.316;6.092;2022-12-08T01:30:41;10.35;;;6.75;;
23952;SDS011;12163;49.316;6.092;2022-12-08T01:33:07;13.07;;;7.15;;
23952;SDS011;12163;49.316;6.092;2022-12-08T01:35:34;11.13;;;6.88;;
23952;SDS011;12163;49.316;6.092;2022-12-08T01:38:00;14.75;;;7.38;;
23952;SDS011;12163;49.316;6.092;2022-12-08T01:40:27;17.20;;;7.97;;
23952;SDS011;12163;49.316;6.092;2022-12-08T01:42:53;16.27;;;8.32;;
23952;SDS011;12163;49.316;6.092;2022-12-08T01:45:31;15.38;;;8.65;;
23952;SDS011;12163;49.316;6.092;2022-12-08T01:47:59;20.27;;;8.82;;
23952;SDS011;12163;49.316;6.092;2022-12-08T01:50:31;16.23;;;9.25;;
23952;SDS011;12163;49.316;6.092;2022-12-08T01:53:09;16.33;;;8.32;;
23952;SDS011;12163;49.316;6.092;2022-12-08T01:55:42;15.77;;;8.07;;
23952;SDS011;12163;49.316;6.092;2022-12-08T01:58:14;16.30;;;8.60;;
23952;SDS011;12163;49.316;6.092;2022-12-08T02:00:43;14.63;;;8.10;;
23952;SDS011;12163;49.316;6.092;2022-12-08T02:03:12;16.02;;;7.53;;
23952;SDS011;12163;49.316;6.092;2022-12-08T02:05:44;15.07;;;8.02;;
23952;SDS011;12163;49.316;6.092;2022-12-08T02:08:12;13.55;;;6.63;;
23952;SDS011;12163;49.316;6.092;2022-12-08T02:10:40;13.35;;;6.45;;
23952;SDS011;12163;49.316;6.092;2022-12-08T02:13:17;10.02;;;6.05;;
23952;SDS011;12163;49.316;6.092;2022-12-08T02:32:35;4.80;;;3.33;;
23952;SDS011;12163;49.316;6.092;2022-12-08T02:40:51;6.05;;;3.55;;
23952;SDS011;12163;49.316;6.092;2022-12-08T02:43:42;6.50;;;3.72;;
23952;SDS011;12163;49.316;6.092;2022-12-08T02:46:48;7.03;;;4.00;;
23952;SDS011;12163;49.316;6.092;2022-12-08T02:49:09;8.73;;;4.10;;
23952;SDS011;12163;49.316;6.092;2022-12-08T02:51:36;8.00;;;4.32;;
23952;SDS011;12163;49.316;6.092;2022-12-08T02:54:02;7.88;;;3.90;;
23952;SDS011;12163;49.316;6.092;2022-12-08T02:59:39;8.60;;;4.85;;
23952;SDS011;12163;49.316;6.092;2022-12-08T03:08:20;13.57;;;6.45;;
23952;SDS011;12163;49.316;6.092;2022-12-08T03:11:03;13.57;;;7.07;;
23952;SDS011;12163;49.316;6.092;2022-12-08T03:13:44;15.18;;;7.57;;
23952;SDS011;12163;49.316;6.092;2022-12-08T03:16:14;15.57;;;8.50;;
23952;SDS011;12163;49.316;6.092;2022-12-08T03:18:50;17.88;;;8.40;;
23952;SDS011;12163;49.316;6.092;2022-12-08T03:21:21;18.48;;;8.35;;
23952;SDS011;12163;49.316;6.092;2022-12-08T03:23:49;20.38;;;9.73;;
23952;SDS011;12163;49.316;6.092;2022-12-08T03:29:24;19.10;;;9.45;;
23952;SDS011;12163;49.316;6.092;2022-12-08T03:31:55;17.90;;;9.25;;
23952;SDS011;12163;49.316;6.092;2022-12-08T03:34:24;15.95;;;9.15;;
23952;SDS011;12163;49.316;6.092;2022-12-08T03:36:54;16.52;;;7.78;;
23952;SDS011;12163;49.316;6.092;2022-12-08T03:39:20;10.48;;;6.78;;
23952;SDS011;12163;49.316;6.092;2022-12-08T03:41:48;13.20;;;7.90;;
23952;SDS011;12163;49.316;6.092;2022-12-08T03:44:14;10.77;;;7.25;;
23952;SDS011;12163;49.316;6.092;2022-12-08T03:46:41;12.30;;;7.70;;
23952;SDS011;12163;49.316;6.092;2022-12-08T03:49:07;15.15;;;7.30;;
23952;SDS011;12163;49.316;6.092;2022-12-08T03:51:34;15.93;;;8.07;;
23952;SDS011;12163;49.316;6.092;2022-12-08T03:54:01;18.00;;;8.60;;
23952;SDS011;12163;49.316;6.092;2022-12-08T03:56:31;13.73;;;7.15;;
23952;SDS011;12163;49.316;6.092;2022-12-08T03:58:59;14.02;;;7.82;;
23952;SDS011;12163;49.316;6.092;2022-12-08T04:01:26;17.33;;;7.47;;
23952;SDS011;12163;49.316;6.092;2022-12-08T04:03:53;18.20;;;8.30;;
23952;SDS011;12163;49.316;6.092;2022-12-08T04:06:20;14.75;;;8.13;;
23952;SDS011;12163;49.316;6.092;2022-12-08T04:08:47;13.52;;;8.40;;
23952;SDS011;12163;49.316;6.092;2022-12-08T04:11:15;16.50;;;9.35;;
23952;SDS011;12163;49.316;6.092;2022-12-08T04:13:42;15.45;;;9.05;;
23952;SDS011;12163;49.316;6.092;2022-12-08T04:16:16;18.20;;;9.30;;
23952;SDS011;12163;49.316;6.092;2022-12-08T04:18:45;17.65;;;10.63;;
23952;SDS011;12163;49.316;6.092;2022-12-08T04:21:13;19.48;;;10.13;;
23952;SDS011;12163;49.316;6.092;2022-12-08T04:23:40;18.23;;;10.60;;
23952;SDS011;12163;49.316;6.092;2022-12-08T04:26:07;20.67;;;11.02;;
23952;SDS011;12163;49.316;6.092;2022-12-08T04:28:34;17.35;;;10.00;;
23952;SDS011;12163;49.316;6.092;2022-12-08T04:31:01;15.52;;;10.32;;
23952;SDS011;12163;49.316;6.092;2022-12-08T04:33:28;20.98;;;10.45;;
23952;SDS011;12163;49.316;6.092;2022-12-08T04:35:55;21.35;;;10.23;;
23952;SDS011;12163;49.316;6.092;2022-12-08T04:38:21;20.08;;;11.48;;
23952;SDS011;12163;49.316;6.092;2022-12-08T04:40:48;17.08;;;11.20;;
23952;SDS011;12163;49.316;6.092;2022-12-08T04:43:14;21.88;;;11.13;;
23952;SDS011;12163;49.316;6.092;2022-12-08T04:45:41;21.05;;;11.88;;
23952;SDS011;12163;49.316;6.092;2022-12-08T04:48:08;21.13;;;12.30;;
23952;SDS011;12163;49.316;6.092;2022-12-08T04:50:39;18.73;;;11.88;;
23952;SDS011;12163;49.316;6.092;2022-12-08T04:53:07;18.92;;;12.05;;
23952;SDS011;12163;49.316;6.092;2022-12-08T04:55:37;21.90;;;12.85;;
23952;SDS011;12163;49.316;6.092;2022-12-08T04:58:05;19.98;;;12.65;;
23952;SDS011;12163;49.316;6.092;2022-12-08T05:00:32;23.17;;;13.73;;
23952;SDS011;12163;49.316;6.092;2022-12-08T05:02:59;23.15;;;13.27;;
23952;SDS011;12163;49.316;6.092;2022-12-08T05:05:26;21.83;;;13.13;;
23952;SDS011;12163;49.316;6.092;2022-12-08T05:07:52;25.17;;;13.32;;
23952;SDS011;12163;49.316;6.092;2022-12-08T05:10:19;23.98;;;13.00;;
23952;SDS011;12163;49.316;6.092;2022-12-08T05:12:46;29.67;;;13.85;;
23952;SDS011;12163;49.316;6.092;2022-12-08T05:15:12;22.73;;;13.30;;
23952;SDS011;12163;49.316;6.092;2022-12-08T05:17:39;25.00;;;13.70;;
23952;SDS011;12163;49.316;6.092;2022-12-08T05:20:05;22.75;;;13.68;;
23952;SDS011;12163;49.316;6.092;2022-12-08T05:22:32;22.67;;;13.57;;
23952;SDS011;12163;49.316;6.092;2022-12-08T05:24:59;26.50;;;13.85;;
23952;SDS011;12163;49.316;6.092;2022-12-08T05:27:26;24.55;;;14.85;;
23952;SDS011;12163;49.316;6.092;2022-12-08T05:29:53;24.08;;;14.48;;
23952;SDS011;12163;49.316;6.092;2022-12-08T05:32:19;26.08;;;14.32;;
23952;SDS011;12163;49.316;6.092;2022-12-08T05:34:46;32.70;;;15.43;;
23952;SDS011;12163;49.316;6.092;2022-12-08T05:37:12;25.98;;;14.82;;
23952;SDS011;12163;49.316;6.092;2022-12-08T05:39:39;24.65;;;15.10;;
23952;SDS011;12163;49.316;6.092;2022-12-08T05:42:06;30.20;;;15.10;;
23952;SDS011;12163;49.316;6.092;2022-12-08T05:44:32;26.27;;;15.80;;
23952;SDS011;12163;49.316;6.092;2022-12-08T05:46:59;30.85;;;16.13;;
23952;SDS011;12163;49.316;6.092;2022-12-08T05:49:26;32.83;;;16.45;;
23952;SDS011;12163;49.316;6.092;2022-12-08T05:51:52;27.73;;;16.00;;
23952;SDS011;12163;49.316;6.092;2022-12-08T05:54:19;27.27;;;15.82;;
23952;SDS011;12163;49.316;6.092;2022-12-08T05:56:45;27.92;;;15.73;;
23952;SDS011;12163;49.316;6.092;2022-12-08T05:59:12;17.63;;;10.27;;
23952;SDS011;12163;49.316;6.092;2022-12-08T06:01:38;22.77;;;15.25;;
23952;SDS011;12163;49.316;6.092;2022-12-08T06:04:05;19.73;;;13.38;;
23952;SDS011;12163;49.316;6.092;2022-12-08T06:06:33;25.27;;;14.82;;
23952;SDS011;12163;49.316;6.092;2022-12-08T06:09:02;22.42;;;14.93;;
23952;SDS011;12163;49.316;6.092;2022-12-08T06:11:30;27.58;;;15.23;;
23952;SDS011;12163;49.316;6.092;2022-12-08T06:13:58;28.88;;;15.95;;
23952;SDS011;12163;49.316;6.092;2022-12-08T06:16:25;29.10;;;17.05;;
23952;SDS011;12163;49.316;6.092;2022-12-08T06:18:53;28.70;;;17.00;;
23952;SDS011;12163;49.316;6.092;2022-12-08T06:21:20;28.50;;;17.30;;
23952;SDS011;12163;49.316;6.092;2022-12-08T06:23:48;34.28;;;17.30;;
23952;SDS011;12163;49.316;6.092;2022-12-08T06:26:16;34.70;;;18.63;;
23952;SDS011;12163;49.316;6.092;2022-12-08T06:28:43;28.70;;;16.08;;
23952;SDS011;12163;49.316;6.092;2022-12-08T06:31:11;28.63;;;17.92;;
23952;SDS011;12163;49.316;6.092;2022-12-08T06:33:40;35.20;;;17.85;;
23952;SDS011;12163;49.316;6.092;2022-12-08T06:36:07;30.80;;;17.40;;
23952;SDS011;12163;49.316;6.092;2022-12-08T06:38:33;32.83;;;17.70;;
23952;SDS011;12163;49.316;6.092;2022-12-08T06:41:06;33.70;;;17.02;;
23952;SDS011;12163;49.316;6.092;2022-12-08T06:43:33;29.73;;;17.65;;
23952;SDS011;12163;49.316;6.092;2022-12-08T06:46:00;34.15;;;17.98;;
23952;SDS011;12163;49.316;6.092;2022-12-08T06:48:27;33.83;;;18.60;;
23952;SDS011;12163;49.316;6.092;2022-12-08T06:50:54;32.08;;;17.02;;
23952;SDS011;12163;49.316;6.092;2022-12-08T06:53:20;32.10;;;18.17;;
23952;SDS011;12163;49.316;6.092;2022-12-08T06:55:50;28.40;;;16.30;;
23952;SDS011;12163;49.316;6.092;2022-12-08T06:58:25;31.63;;;17.25;;
23952;SDS011;12163;49.316;6.092;2022-12-08T07:00:52;26.67;;;15.45;;
23952;SDS011;12163;49.316;6.092;2022-12-08T07:03:19;26.60;;;15.88;;
23952;SDS011;12163;49.316;6.092;2022-12-08T07:05:46;26.58;;;15.13;;
23952;SDS011;12163;49.316;6.092;2022-12-08T07:08:12;23.75;;;14.30;;
23952;SDS011;12163;49.316;6.092;2022-12-08T07:10:40;23.30;;;14.50;;
23952;SDS011;12163;49.316;6.092;2022-12-08T07:13:07;27.23;;;14.07;;
23952;SDS011;12163;49.316;6.092;2022-12-08T07:15:33;22.38;;;13.20;;
23952;SDS011;12163;49.316;6.092;2022-12-08T07:18:00;24.33;;;14.23;;
23952;SDS011;12163;49.316;6.092;2022-12-08T07:20:26;22.38;;;11.93;;
23952;SDS011;12163;49.316;6.092;2022-12-08T07:22:53;22.85;;;12.40;;
23952;SDS011;12163;49.316;6.092;2022-12-08T07:25:20;19.65;;;11.77;;
23952;SDS011;12163;49.316;6.092;2022-12-08T07:27:47;18.67;;;11.07;;
23952;SDS011;12163;49.316;6.092;2022-12-08T07:30:16;19.23;;;12.50;;
23952;SDS011;12163;49.316;6.092;2022-12-08T07:32:43;19.50;;;11.93;;
23952;SDS011;12163;49.316;6.092;2022-12-08T07:35:10;23.88;;;12.50;;
23952;SDS011;12163;49.316;6.092;2022-12-08T07:37:36;26.45;;;12.30;;
23952;SDS011;12163;49.316;6.092;2022-12-08T07:40:04;23.25;;;12.20;;
23952;SDS011;12163;49.316;6.092;2022-12-08T07:42:32;15.52;;;11.00;;
23952;SDS011;12163;49.316;6.092;2022-12-08T07:44:59;17.05;;;10.15;;
23952;SDS011;12163;49.316;6.092;2022-12-08T07:47:26;24.13;;;11.38;;
23952;SDS011;12163;49.316;6.092;2022-12-08T07:49:53;24.48;;;13.27;;
23952;SDS011;12163;49.316;6.092;2022-12-08T07:52:19;18.52;;;10.48;;
23952;SDS011;12163;49.316;6.092;2022-12-08T07:54:46;18.25;;;11.57;;
23952;SDS011;12163;49.316;6.092;2022-12-08T07:57:13;17.25;;;10.95;;
23952;SDS011;12163;49.316;6.092;2022-12-08T07:59:40;19.45;;;11.70;;
23952;SDS011;12163;49.316;6.092;2022-12-08T08:02:11;18.95;;;11.00;;
23952;SDS011;12163;49.316;6.092;2022-12-08T08:04:51;16.38;;;10.32;;
23952;SDS011;12163;49.316;6.092;2022-12-08T08:07:18;15.07;;;9.85;;
23952;SDS011;12163;49.316;6.092;2022-12-08T08:09:45;18.50;;;10.85;;
23952;SDS011;12163;49.316;6.092;2022-12-08T08:12:12;15.70;;;10.48;;
23952;SDS011;12163;49.316;6.092;2022-12-08T08:14:59;17.80;;;10.43;;
23952;SDS011;12163;49.316;6.092;2022-12-08T08:17:27;20.25;;;10.90;;
23952;SDS011;12163;49.316;6.092;2022-12-08T08:19:55;17.25;;;10.43;;
23952;SDS011;12163;49.316;6.092;2022-12-08T08:22:22;19.40;;;11.27;;
23952;SDS011;12163;49.316;6.092;2022-12-08T08:24:50;21.35;;;10.93;;
23952;SDS011;12163;49.316;6.092;2022-12-08T08:27:16;19.13;;;11.70;;
23952;SDS011;12163;49.316;6.092;2022-12-08T08:29:43;20.33;;;11.30;;
23952;SDS011;12163;49.316;6.092;2022-12-08T08:32:10;22.35;;;12.38;;
23952;SDS011;12163;49.316;6.092;2022-12-08T08:34:37;21.88;;;13.27;;
23952;SDS011;12163;49.316;6.092;2022-12-08T08:37:03;22.08;;;13.32;;
23952;SDS011;12163;49.316;6.092;2022-12-08T08:39:30;24.40;;;14.68;;
23952;SDS011;12163;49.316;6.092;2022-12-08T08:41:57;23.42;;;13.30;;
23952;SDS011;12163;49.316;6.092;2022-12-08T08:44:23;23.63;;;13.50;;
23952;SDS011;12163;49.316;6.092;2022-12-08T08:46:50;30.50;;;13.68;;
23952;SDS011;12163;49.316;6.092;2022-12-08T08:49:17;25.90;;;13.43;;
23952;SDS011;12163;49.316;6.092;2022-12-08T08:51:43;23.30;;;14.40;;
23952;SDS011;12163;49.316;6.092;2022-12-08T08:54:10;22.17;;;13.70;;
23952;SDS011;12163;49.316;6.092;2022-12-08T08:56:37;20.92;;;13.35;;
23952;SDS011;12163;49.316;6.092;2022-12-08T08:59:03;24.20;;;14.18;;
23952;SDS011;12163;49.316;6.092;2022-12-08T09:01:30;24.88;;;14.95;;
23952;SDS011;12163;49.316;6.092;2022-12-08T09:03:57;22.98;;;14.73;;
23952;SDS011;12163;49.316;6.092;2022-12-08T09:06:24;28.48;;;14.50;;
23952;SDS011;12163;49.316;6.092;2022-12-08T09:08:53;24.48;;;14.23;;
23952;SDS011;12163;49.316;6.092;2022-12-08T09:11:20;25.88;;;15.25;;
23952;SDS011;12163;49.316;6.092;2022-12-08T09:13:49;24.15;;;14.82;;
23952;SDS011;12163;49.316;6.092;2022-12-08T09:16:17;24.73;;;15.50;;
23952;SDS011;12163;49.316;6.092;2022-12-08T09:18:44;26.90;;;14.57;;
23952;SDS011;12163;49.316;6.092;2022-12-08T09:21:13;21.67;;;14.05;;
23952;SDS011;12163;49.316;6.092;2022-12-08T09:23:42;21.23;;;13.50;;
23952;SDS011;12163;49.316;6.092;2022-12-08T09:26:09;23.00;;;13.88;;
23952;SDS011;12163;49.316;6.092;2022-12-08T09:28:35;21.92;;;14.25;;
23952;SDS011;12163;49.316;6.092;2022-12-08T09:31:03;25.60;;;13.32;;
23952;SDS011;12163;49.316;6.092;2022-12-08T09:33:30;26.58;;;14.23;;
23952;SDS011;12163;49.316;6.092;2022-12-08T09:36:00;24.42;;;13.95;;
23952;SDS011;12163;49.316;6.092;2022-12-08T09:38:27;24.85;;;14.43;;
23952;SDS011;12163;49.316;6.092;2022-12-08T09:40:54;25.23;;;14.98;;
23952;SDS011;12163;49.316;6.092;2022-12-08T09:46:09;25.60;;;14.18;;
23952;SDS011;12163;49.316;6.092;2022-12-08T09:48:41;24.35;;;14.48;;
23952;SDS011;12163;49.316;6.092;2022-12-08T09:51:25;21.00;;;13.50;;
23952;SDS011;12163;49.316;6.092;2022-12-08T09:53:57;25.75;;;13.00;;
23952;SDS011;12163;49.316;6.092;2022-12-08T09:56:32;24.85;;;13.52;;
23952;SDS011;12163;49.316;6.092;2022-12-08T09:59:03;24.17;;;13.75;;
23952;SDS011;12163;49.316;6.092;2022-12-08T10:01:42;31.48;;;14.65;;
23952;SDS011;12163;49.316;6.092;2022-12-08T10:04:18;29.75;;;14.13;;
23952;SDS011;12163;49.316;6.092;2022-12-08T10:10:28;22.23;;;14.48;;
23952;SDS011;12163;49.316;6.092;2022-12-08T10:17:45;22.35;;;13.80;;
23952;SDS011;12163;49.316;6.092;2022-12-08T10:20:15;24.10;;;13.13;;
23952;SDS011;12163;49.316;6.092;2022-12-08T10:22:48;25.33;;;13.95;;
23952;SDS011;12163;49.316;6.092;2022-12-08T10:30:19;21.92;;;12.90;;
23952;SDS011;12163;49.316;6.092;2022-12-08T10:32:47;22.05;;;13.95;;
23952;SDS011;12163;49.316;6.092;2022-12-08T10:35:16;22.67;;;13.65;;
23952;SDS011;12163;49.316;6.092;2022-12-08T10:37:55;25.33;;;14.00;;
23952;SDS011;12163;49.316;6.092;2022-12-08T10:40:33;21.45;;;13.45;;
23952;SDS011;12163;49.316;6.092;2022-12-08T10:43:14;26.17;;;13.10;;
23952;SDS011;12163;49.316;6.092;2022-12-08T10:45:47;26.63;;;15.10;;
23952;SDS011;12163;49.316;6.092;2022-12-08T10:48:18;21.30;;;13.02;;
23952;SDS011;12163;49.316;6.092;2022-12-08T10:50:57;20.85;;;12.40;;
23952;SDS011;12163;49.316;6.092;2022-12-08T10:53:26;22.25;;;13.02;;
23952;SDS011;12163;49.316;6.092;2022-12-08T11:01:00;24.90;;;14.05;;
23952;SDS011;12163;49.316;6.092;2022-12-08T11:03:35;21.60;;;12.65;;
23952;SDS011;12163;49.316;6.092;2022-12-08T11:06:11;23.25;;;13.55;;
23952;SDS011;12163;49.316;6.092;2022-12-08T11:08:48;24.75;;;13.48;;
23952;SDS011;12163;49.316;6.092;2022-12-08T11:11:18;22.52;;;12.23;;
23952;SDS011;12163;49.316;6.092;2022-12-08T11:13:54;25.27;;;12.65;;
23952;SDS011;12163;49.316;6.092;2022-12-08T11:16:21;25.65;;;12.57;;
23952;SDS011;12163;49.316;6.092;2022-12-08T11:18:54;21.90;;;12.73;;
23952;SDS011;12163;49.316;6.092;2022-12-08T11:21:33;22.65;;;11.75;;
23952;SDS011;12163;49.316;6.092;2022-12-08T11:26:43;21.77;;;12.35;;
23952;SDS011;12163;49.316;6.092;2022-12-08T11:29:27;23.85;;;12.60;;
23952;SDS011;12163;49.316;6.092;2022-12-08T11:34:39;20.35;;;11.68;;
23952;SDS011;12163;49.316;6.092;2022-12-08T11:37:11;19.90;;;11.98;;
23952;SDS011;12163;49.316;6.092;2022-12-08T11:39:46;23.40;;;11.02;;
23952;SDS011;12163;49.316;6.092;2022-12-08T11:42:15;17.23;;;11.47;;
23952;SDS011;12163;49.316;6.092;2022-12-08T11:44:54;20.92;;;11.73;;
23952;SDS011;12163;49.316;6.092;2022-12-08T11:47:27;22.98;;;11.57;;
23952;SDS011;12163;49.316;6.092;2022-12-08T11:50:10;18.95;;;11.48;;
23952;SDS011;12163;49.316;6.092;2022-12-08T11:52:56;21.30;;;12.20;;
23952;SDS011;12163;49.316;6.092;2022-12-08T11:55:33;21.83;;;11.52;;
23952;SDS011;12163;49.316;6.092;2022-12-08T11:58:21;25.13;;;12.05;;
23952;SDS011;12163;49.316;6.092;2022-12-08T12:00:54;19.27;;;11.73;;
23952;SDS011;12163;49.316;6.092;2022-12-08T12:25:49;21.95;;;11.52;;
23952;SDS011;12163;49.316;6.092;2022-12-08T12:28:21;18.75;;;10.98;;
23952;SDS011;12163;49.316;6.092;2022-12-08T12:31:02;18.87;;;10.83;;
23952;SDS011;12163;49.316;6.092;2022-12-08T12:33:33;18.88;;;10.82;;
23952;SDS011;12163;49.316;6.092;2022-12-08T12:36:02;23.15;;;11.25;;
23952;SDS011;12163;49.316;6.092;2022-12-08T12:41:44;18.85;;;9.63;;
23952;SDS011;12163;49.316;6.092;2022-12-08T12:54:35;21.33;;;9.57;;
23952;SDS011;12163;49.316;6.092;2022-12-08T12:59:44;17.00;;;9.55;;
23952;SDS011;12163;49.316;6.092;2022-12-08T13:02:28;17.58;;;9.20;;
23952;SDS011;12163;49.316;6.092;2022-12-08T13:05:42;15.40;;;9.00;;
23952;SDS011;12163;49.316;6.092;2022-12-08T13:10:37;18.10;;;8.82;;
23952;SDS011;12163;49.316;6.092;2022-12-08T13:15:38;15.85;;;9.60;;
23952;SDS011;12163;49.316;6.092;2022-12-08T13:18:14;16.30;;;9.77;;
23952;SDS011;12163;49.316;6.092;2022-12-08T13:20:46;15.73;;;9.65;;
23952;SDS011;12163;49.316;6.092;2022-12-08T13:23:27;19.27;;;10.18;;
23952;SDS011;12163;49.316;6.092;2022-12-08T13:26:17;22.88;;;8.90;;
23952;SDS011;12163;49.316;6.092;2022-12-08T13:39:43;15.52;;;8.88;;
23952;SDS011;12163;49.316;6.092;2022-12-08T13:42:18;16.10;;;8.93;;
23952;SDS011;12163;49.316;6.092;2022-12-08T13:48:01;14.10;;;8.90;;
23952;SDS011;12163;49.316;6.092;2022-12-08T13:54:00;16.17;;;8.68;;
23952;SDS011;12163;49.316;6.092;2022-12-08T13:56:52;13.38;;;7.95;;
23952;SDS011;12163;49.316;6.092;2022-12-08T13:59:42;18.85;;;8.32;;
23952;SDS011;12163;49.316;6.092;2022-12-08T14:02:56;17.92;;;7.57;;
23952;SDS011;12163;49.316;6.092;2022-12-08T14:05:12;15.85;;;8.32;;
23952;SDS011;12163;49.316;6.092;2022-12-08T14:07:52;13.77;;;7.30;;
23952;SDS011;12163;49.316;6.092;2022-12-08T14:10:22;15.00;;;8.05;;
23952;SDS011;12163;49.316;6.092;2022-12-08T14:12:58;17.38;;;7.75;;
23952;SDS011;12163;49.316;6.092;2022-12-08T14:15:27;14.07;;;7.28;;
23952;SDS011;12163;49.316;6.092;2022-12-08T14:18:03;15.27;;;7.63;;
23952;SDS011;12163;49.316;6.092;2022-12-08T14:20:32;13.65;;;7.90;;
23952;SDS011;12163;49.316;6.092;2022-12-08T14:23:20;11.00;;;7.05;;
23952;SDS011;12163;49.316;6.092;2022-12-08T14:25:47;13.77;;;7.50;;
23952;SDS011;12163;49.316;6.092;2022-12-08T14:28:13;16.17;;;7.88;;
23952;SDS011;12163;49.316;6.092;2022-12-08T14:30:40;12.68;;;7.63;;
23952;SDS011;12163;49.316;6.092;2022-12-08T14:33:10;12.43;;;7.95;;
23952;SDS011;12163;49.316;6.092;2022-12-08T14:35:40;17.42;;;8.23;;
23952;SDS011;12163;49.316;6.092;2022-12-08T14:38:13;13.90;;;8.20;;
23952;SDS011;12163;49.316;6.092;2022-12-08T14:40:58;13.07;;;8.65;;
23952;SDS011;12163;49.316;6.092;2022-12-08T14:43:30;17.70;;;8.48;;
23952;SDS011;12163;49.316;6.092;2022-12-08T14:46:17;20.13;;;8.35;;
23952;SDS011;12163;49.316;6.092;2022-12-08T14:48:46;17.95;;;8.73;;
23952;SDS011;12163;49.316;6.092;2022-12-08T14:58:48;13.93;;;8.43;;
23952;SDS011;12163;49.316;6.092;2022-12-08T15:01:26;19.42;;;9.10;;
23952;SDS011;12163;49.316;6.092;2022-12-08T15:03:58;18.80;;;9.25;;
23952;SDS011;12163;49.316;6.092;2022-12-08T15:06:33;23.65;;;9.65;;
23952;SDS011;12163;49.316;6.092;2022-12-08T15:09:13;17.83;;;9.98;;
23952;SDS011;12163;49.316;6.092;2022-12-08T15:12:01;16.83;;;9.45;;
23952;SDS011;12163;49.316;6.092;2022-12-08T15:19:56;16.85;;;7.15;;
23952;SDS011;12163;49.316;6.092;2022-12-08T15:22:24;19.25;;;6.93;;
23952;SDS011;12163;49.316;6.092;2022-12-08T15:24:54;13.15;;;7.00;;
23952;SDS011;12163;49.316;6.092;2022-12-08T15:27:22;15.25;;;7.47;;
23952;SDS011;12163;49.316;6.092;2022-12-08T15:29:49;12.10;;;7.57;;
23952;SDS011;12163;49.316;6.092;2022-12-08T15:32:18;15.27;;;7.47;;
23952;SDS011;12163;49.316;6.092;2022-12-08T15:34:47;12.30;;;6.80;;
23952;SDS011;12163;49.316;6.092;2022-12-08T15:37:23;14.38;;;7.60;;
23952;SDS011;12163;49.316;6.092;2022-12-08T15:39:51;12.68;;;7.32;;
23952;SDS011;12163;49.316;6.092;2022-12-08T15:42:18;13.57;;;7.90;;
23952;SDS011;12163;49.316;6.092;2022-12-08T15:44:45;11.82;;;7.05;;
23952;SDS011;12163;49.316;6.092;2022-12-08T15:47:15;14.50;;;7.32;;
23952;SDS011;12163;49.316;6.092;2022-12-08T15:49:45;17.00;;;7.15;;
23952;SDS011;12163;49.316;6.092;2022-12-08T15:52:13;18.17;;;8.13;;
23952;SDS011;12163;49.316;6.092;2022-12-08T15:54:43;15.93;;;7.20;;
23952;SDS011;12163;49.316;6.092;2022-12-08T15:57:29;15.32;;;7.15;;
23952;SDS011;12163;49.316;6.092;2022-12-08T16:03:19;15.07;;;6.45;;
23952;SDS011;12163;49.316;6.092;2022-12-08T16:06:17;11.73;;;6.15;;
23952;SDS011;12163;49.316;6.092;2022-12-08T16:09:08;14.60;;;7.00;;
23952;SDS011;12163;49.316;6.092;2022-12-08T16:11:41;14.77;;;6.65;;
23952;SDS011;12163;49.316;6.092;2022-12-08T16:14:36;11.15;;;6.45;;
23952;SDS011;12163;49.316;6.092;2022-12-08T16:17:23;15.60;;;7.50;;
23952;SDS011;12163;49.316;6.092;2022-12-08T16:19:50;17.90;;;7.43;;
23952;SDS011;12163;49.316;6.092;2022-12-08T16:22:18;12.23;;;6.88;;
23952;SDS011;12163;49.316;6.092;2022-12-08T16:25:07;13.35;;;6.70;;
23952;SDS011;12163;49.316;6.092;2022-12-08T16:27:51;12.52;;;6.75;;
23952;SDS011;12163;49.316;6.092;2022-12-08T16:30:39;11.77;;;6.35;;
23952;SDS011;12163;49.316;6.092;2022-12-08T16:33:06;11.20;;;5.80;;
23952;SDS011;12163;49.316;6.092;2022-12-08T16:35:32;12.27;;;6.68;;
23952;SDS011;12163;49.316;6.092;2022-12-08T16:37:59;10.15;;;6.35;;
23952;SDS011;12163;49.316;6.092;2022-12-08T16:40:26;15.38;;;6.07;;
23952;SDS011;12163;49.316;6.092;2022-12-08T16:42:52;13.30;;;6.28;;
23952;SDS011;12163;49.316;6.092;2022-12-08T16:45:37;14.35;;;6.97;;
23952;SDS011;12163;49.316;6.092;2022-12-08T16:48:12;15.98;;;7.13;;
23952;SDS011;12163;49.316;6.092;2022-12-08T16:50:42;16.73;;;7.70;;
23952;SDS011;12163;49.316;6.092;2022-12-08T16:53:10;13.63;;;7.20;;
23952;SDS011;12163;49.316;6.092;2022-12-08T16:55:37;17.42;;;8.90;;
23952;SDS011;12163;49.316;6.092;2022-12-08T16:58:05;18.60;;;8.88;;
23952;SDS011;12163;49.316;6.092;2022-12-08T17:00:33;21.05;;;10.05;;
23952;SDS011;12163;49.316;6.092;2022-12-08T17:03:03;14.68;;;8.07;;
23952;SDS011;12163;49.316;6.092;2022-12-08T17:05:33;13.85;;;7.93;;
23952;SDS011;12163;49.316;6.092;2022-12-08T17:08:00;17.17;;;7.82;;
23952;SDS011;12163;49.316;6.092;2022-12-08T17:10:28;19.80;;;7.47;;